Rodbyhavn, Denmark
Current Conditions -  °F | °C
As of 4:50 PM on Wednesday 22 Oct 2014 (Local Time) from EDHK Reporting Station
Broken Clouds Broken Clouds  
Wind Chill: 55°   Ceiling: 4000
Heat Index: 55°   Visibility: 6mi
Dew Point: 48°   Wind: 8mph
Humidity: 77%   Direction: 330°NNW
Pressure: 29.83"   Gusts: NA
Location:  54.65°N, 11.35°E
Report Text: EDHK 221450Z 33007KT 9999 BKN040 13/09 Q1010
Loading
Personal Weather Stations






























Interactive Weather Map
Tropical Storm Tracking
New forecast layout! Learn more

10-Day Weather Forecast

Advertisements
Track Severe Weather on mobile